createdAt,value
2023-05-25T00:07:40.907Z,96976.88
2023-05-25T00:16:04.057Z,96931.38
2023-05-25T00:24:26.924Z,96885.21
2023-05-25T00:32:49.820Z,96822.92
2023-05-25T00:41:13.748Z,96777.96
2023-05-25T00:49:36.916Z,96756.57
2023-05-25T00:58:01.427Z,96715.45
2023-05-25T01:06:27.373Z,96673.35
2023-05-25T01:14:53.472Z,96637.64
2023-05-25T01:23:20.691Z,96622.55
2023-05-25T01:31:45.575Z,96618.69
2023-05-25T01:40:09.718Z,96614.09
2023-05-25T01:48:51.098Z,96618.89
2023-05-25T01:57:17.005Z,96616.88
2023-05-25T02:05:46.510Z,96600.39
2023-05-25T02:14:11.225Z,96597.86
2023-05-25T02:22:35.113Z,96597.81
2023-05-25T02:30:58.016Z,96601.99
2023-05-25T02:39:21.102Z,96612.89
2023-05-25T02:47:44.673Z,96602.71
2023-05-25T02:56:10.417Z,96606.05
2023-05-25T03:04:38.016Z,96612.02
2023-05-25T03:13:01.593Z,96618.02
2023-05-25T03:21:24.954Z,96619.81
2023-05-25T03:29:51.640Z,96621.64
2023-05-25T03:38:14.670Z,96625.77
2023-05-25T03:46:38.660Z,96617.45
2023-05-25T03:55:01.984Z,96618.17
2023-05-25T04:03:25.206Z,96626.58
2023-05-25T04:11:48.450Z,96660.44
2023-05-25T04:20:12.230Z,96681.09
2023-05-25T04:28:37.347Z,96705.09
2023-05-25T04:37:09.393Z,96723.13
2023-05-25T04:45:33.672Z,96737.70
2023-05-25T04:53:59.764Z,96741.71
2023-05-25T05:02:25.941Z,96765.95
2023-05-25T05:10:50.605Z,96786.42
2023-05-25T05:19:14.347Z,96786.98
2023-05-25T05:27:37.622Z,96793.73
2023-05-25T05:36:11.097Z,96816.14
2023-05-25T05:44:36.287Z,96854.81
2023-05-25T05:52:59.431Z,96883.38
2023-05-25T06:01:22.566Z,96908.51
2023-05-25T06:09:46.225Z,96925.76
2023-05-25T06:18:10.113Z,96977.02
2023-05-25T06:26:33.697Z,97014.43
2023-05-25T06:34:57.049Z,97052.96
2023-05-25T06:43:21.448Z,97089.10
2023-05-25T06:52:05.166Z,97143.32
2023-05-25T07:00:28.127Z,97154.42
2023-05-25T07:08:52.226Z,97164.67
2023-05-25T07:17:16.032Z,97195.60
2023-05-25T07:25:39.892Z,97238.10
2023-05-25T07:34:04.454Z,97302.91
2023-05-25T07:42:33.935Z,97367.17
2023-05-25T07:50:57.636Z,97426.70
2023-05-25T07:59:20.944Z,97468.34
2023-05-25T08:07:46.072Z,97530.30
2023-05-25T08:16:09.769Z,97605.25
2023-05-25T08:24:34.168Z,97670.17
2023-05-25T08:32:57.916Z,97742.75
2023-05-25T08:41:23.919Z,97799.19
2023-05-25T08:49:51.008Z,97885.50
2023-05-25T08:58:19.783Z,97966.57
2023-05-25T09:06:57.216Z,98068.95
2023-05-25T09:15:29.415Z,98166.66
2023-05-25T09:23:53.049Z,98294.83
2023-05-25T09:32:17.628Z,98412.56
2023-05-25T09:40:41.343Z,98456.04
2023-05-25T09:49:08.820Z,98539.53
2023-05-25T09:57:31.915Z,98633.84
2023-05-25T10:05:56.561Z,98753.78
2023-05-25T10:14:30.386Z,98986.52
2023-05-25T10:23:11.401Z,99268.02
2023-05-25T10:31:37.941Z,99454.48
2023-05-25T10:40:02.869Z,99708.21
2023-05-25T10:48:36.715Z,99971.79
2023-05-25T10:57:17.907Z,100197.38
2023-05-25T11:05:40.900Z,100443.00
2023-05-25T11:14:22.266Z,100634.19
2023-05-25T11:22:45.508Z,100665.50
2023-05-25T11:31:09.767Z,100681.32
2023-05-25T11:39:32.817Z,100627.21
2023-05-25T11:47:57.097Z,100776.38
2023-05-25T11:56:34.333Z,100855.96
2023-05-25T12:05:03.864Z,100900.85
2023-05-25T12:13:27.443Z,101041.80
2023-05-25T12:21:51.970Z,101118.48
2023-05-25T12:30:15.734Z,101106.35
2023-05-25T12:38:38.853Z,101161.07
2023-05-25T12:47:19.779Z,101165.55
2023-05-25T12:55:43.182Z,101042.98
2023-05-25T13:04:06.528Z,100871.02
2023-05-25T13:12:29.569Z,100811.75
2023-05-25T13:20:55.856Z,100817.30
2023-05-25T13:29:20.212Z,100943.61
2023-05-25T13:37:43.168Z,101147.77
2023-05-25T13:46:06.202Z,101284.19
2023-05-25T13:54:29.178Z,101326.77
2023-05-25T14:02:52.324Z,101326.77
2023-05-25T14:11:17.123Z,101340.80
2023-05-25T14:19:40.219Z,101295.04
2023-05-25T14:28:03.694Z,101172.81
2023-05-25T14:36:26.639Z,101066.85
2023-05-25T14:44:49.781Z,101020.61
2023-05-25T14:53:12.776Z,100943.27
2023-05-25T15:01:36.074Z,100971.79
2023-05-25T15:09:59.260Z,101014.66
2023-05-25T15:18:22.291Z,100975.80
2023-05-25T15:26:45.340Z,101024.81
2023-05-25T15:35:08.705Z,100962.46
2023-05-25T15:43:31.609Z,100906.91
2023-05-25T15:51:56.268Z,100862.82
2023-05-25T16:00:19.593Z,100818.14
2023-05-25T16:08:42.658Z,100753.23
2023-05-25T16:25:55.209Z,100680.11
2023-05-25T16:34:18.453Z,100638.54
2023-05-25T16:42:42.115Z,100535.92
2023-05-25T16:51:06.353Z,100464.70
2023-05-25T16:59:29.572Z,100438.79
2023-05-25T17:07:52.699Z,100470.73
2023-05-25T17:16:15.719Z,100487.43
2023-05-25T17:24:39.013Z,100439.64
2023-05-25T17:33:02.200Z,100357.49
2023-05-25T17:41:26.395Z,100262.00
2023-05-25T17:49:50.963Z,100159.30
2023-05-25T17:58:14.005Z,100064.39
2023-05-25T18:06:37.277Z,99986.69
2023-05-25T18:15:03.183Z,99878.05
2023-05-25T18:23:26.488Z,99735.59
2023-05-25T18:31:50.546Z,99599.95
2023-05-25T18:40:14.064Z,99490.42
2023-05-25T18:48:38.688Z,99370.70
2023-05-25T18:57:03.186Z,99246.24
2023-05-25T19:05:26.502Z,99131.73
2023-05-25T19:13:49.787Z,99048.38
2023-05-25T19:22:13.160Z,98930.93
2023-05-25T19:30:36.503Z,98821.46
2023-05-25T19:38:59.565Z,98748.52
2023-05-25T19:47:23.404Z,98666.77
2023-05-25T19:55:46.741Z,98593.80
2023-05-25T20:04:10.112Z,98547.64
2023-05-25T20:12:33.687Z,98496.17
2023-05-25T20:20:57.953Z,98459.77
2023-05-25T20:29:21.606Z,98458.46
2023-05-25T20:37:44.879Z,98453.00
2023-05-25T20:46:09.697Z,98423.54
2023-05-25T20:54:33.535Z,98378.66
2023-05-25T21:02:56.549Z,98352.20
2023-05-25T21:11:21.119Z,98323.48
2023-05-25T21:19:44.229Z,98291.02
2023-05-25T21:28:09.189Z,98275.39
2023-05-25T21:36:32.511Z,98262.33
2023-05-25T21:44:55.681Z,98214.22
2023-05-25T21:53:19.927Z,98170.80
2023-05-25T22:01:42.950Z,98120.14
2023-05-25T22:10:06.852Z,98084.11
2023-05-25T22:18:29.978Z,98042.48
2023-05-25T22:26:52.916Z,97966.11
2023-05-25T22:35:16.027Z,97867.55
2023-05-25T22:43:39.009Z,97789.09
2023-05-25T22:52:02.074Z,97740.99
2023-05-25T23:00:25.760Z,97697.08
2023-05-25T23:08:48.726Z,97617.45
2023-05-25T23:17:12.445Z,97570.74
2023-05-25T23:25:37.526Z,97518.05
2023-05-25T23:34:01.378Z,97466.63
2023-05-25T23:42:28.192Z,97398.81
2023-05-25T23:50:51.123Z,97344.27
2023-05-25T23:59:15.225Z,97292.65
